sensor_id;sensor_type;location;lat;lon;timestamp;P1;durP1;ratioP1;P2;durP2;ratioP2
85738;SDS011;76182;41.498;22.100;2024-03-02T00:00:36;18.08;;;9.82;;
85738;SDS011;76182;41.498;22.100;2024-03-02T00:03:01;16.80;;;9.35;;
85738;SDS011;76182;41.498;22.100;2024-03-02T00:05:28;15.88;;;10.32;;
85738;SDS011;76182;41.498;22.100;2024-03-02T00:07:54;14.65;;;9.77;;
85738;SDS011;76182;41.498;22.100;2024-03-02T00:10:22;17.90;;;9.98;;
85738;SDS011;76182;41.498;22.100;2024-03-02T00:12:57;16.63;;;11.15;;
85738;SDS011;76182;41.498;22.100;2024-03-02T00:18:58;16.38;;;11.18;;
85738;SDS011;76182;41.498;22.100;2024-03-02T00:21:05;18.65;;;10.70;;
85738;SDS011;76182;41.498;22.100;2024-03-02T00:23:34;17.70;;;11.18;;
85738;SDS011;76182;41.498;22.100;2024-03-02T00:26:00;19.73;;;11.50;;
85738;SDS011;76182;41.498;22.100;2024-03-02T00:28:27;19.05;;;11.50;;
85738;SDS011;76182;41.498;22.100;2024-03-02T00:33:53;20.02;;;11.82;;
85738;SDS011;76182;41.498;22.100;2024-03-02T00:36:24;17.23;;;10.52;;
85738;SDS011;76182;41.498;22.100;2024-03-02T00:38:52;19.80;;;11.68;;
85738;SDS011;76182;41.498;22.100;2024-03-02T00:46:23;22.52;;;11.48;;
85738;SDS011;76182;41.498;22.100;2024-03-02T00:48:55;18.60;;;11.95;;
85738;SDS011;76182;41.498;22.100;2024-03-02T00:51:22;17.63;;;10.95;;
85738;SDS011;76182;41.498;22.100;2024-03-02T00:53:49;20.20;;;11.00;;
85738;SDS011;76182;41.498;22.100;2024-03-02T00:56:15;22.88;;;13.32;;
85738;SDS011;76182;41.498;22.100;2024-03-02T00:58:42;23.83;;;13.23;;
85738;SDS011;76182;41.498;22.100;2024-03-02T01:01:07;20.40;;;12.45;;
85738;SDS011;76182;41.498;22.100;2024-03-02T01:03:33;23.98;;;13.68;;
85738;SDS011;76182;41.498;22.100;2024-03-02T01:05:59;19.20;;;12.02;;
85738;SDS011;76182;41.498;22.100;2024-03-02T01:08:24;21.55;;;12.80;;
85738;SDS011;76182;41.498;22.100;2024-03-02T01:10:51;19.35;;;12.82;;
85738;SDS011;76182;41.498;22.100;2024-03-02T01:13:16;19.88;;;12.57;;
85738;SDS011;76182;41.498;22.100;2024-03-02T01:15:42;20.98;;;14.15;;
85738;SDS011;76182;41.498;22.100;2024-03-02T01:18:07;21.00;;;13.32;;
85738;SDS011;76182;41.498;22.100;2024-03-02T01:20:33;21.30;;;13.98;;
85738;SDS011;76182;41.498;22.100;2024-03-02T01:22:59;29.90;;;13.30;;
85738;SDS011;76182;41.498;22.100;2024-03-02T01:25:24;23.58;;;13.15;;
85738;SDS011;76182;41.498;22.100;2024-03-02T01:27:50;26.52;;;14.57;;
85738;SDS011;76182;41.498;22.100;2024-03-02T01:30:15;34.28;;;16.80;;
85738;SDS011;76182;41.498;22.100;2024-03-02T01:32:41;29.42;;;15.00;;
85738;SDS011;76182;41.498;22.100;2024-03-02T01:35:06;30.60;;;14.98;;
85738;SDS011;76182;41.498;22.100;2024-03-02T01:37:32;28.45;;;15.30;;
85738;SDS011;76182;41.498;22.100;2024-03-02T01:39:58;27.02;;;14.00;;
85738;SDS011;76182;41.498;22.100;2024-03-02T01:42:24;23.75;;;13.05;;
85738;SDS011;76182;41.498;22.100;2024-03-02T01:44:49;20.92;;;11.98;;
85738;SDS011;76182;41.498;22.100;2024-03-02T01:47:15;28.05;;;12.68;;
85738;SDS011;76182;41.498;22.100;2024-03-02T01:49:41;20.02;;;12.15;;
85738;SDS011;76182;41.498;22.100;2024-03-02T01:52:06;19.52;;;12.60;;
85738;SDS011;76182;41.498;22.100;2024-03-02T01:54:32;22.88;;;11.82;;
85738;SDS011;76182;41.498;22.100;2024-03-02T01:56:59;73.47;;;13.80;;
85738;SDS011;76182;41.498;22.100;2024-03-02T01:59:25;25.08;;;12.18;;
85738;SDS011;76182;41.498;22.100;2024-03-02T02:01:50;24.58;;;13.02;;
85738;SDS011;76182;41.498;22.100;2024-03-02T02:04:16;21.10;;;12.25;;
85738;SDS011;76182;41.498;22.100;2024-03-02T02:06:42;21.50;;;12.77;;
85738;SDS011;76182;41.498;22.100;2024-03-02T02:09:09;24.70;;;13.43;;
85738;SDS011;76182;41.498;22.100;2024-03-02T02:11:34;22.08;;;12.95;;
85738;SDS011;76182;41.498;22.100;2024-03-02T02:14:00;24.25;;;13.23;;
85738;SDS011;76182;41.498;22.100;2024-03-02T02:16:25;24.58;;;13.63;;
85738;SDS011;76182;41.498;22.100;2024-03-02T02:18:51;31.45;;;13.90;;
85738;SDS011;76182;41.498;22.100;2024-03-02T02:21:16;22.23;;;13.95;;
85738;SDS011;76182;41.498;22.100;2024-03-02T02:23:41;25.63;;;13.30;;
85738;SDS011;76182;41.498;22.100;2024-03-02T02:26:11;27.23;;;14.07;;
85738;SDS011;76182;41.498;22.100;2024-03-02T02:28:37;24.10;;;13.82;;
85738;SDS011;76182;41.498;22.100;2024-03-02T02:31:02;24.27;;;13.88;;
85738;SDS011;76182;41.498;22.100;2024-03-02T02:33:28;25.65;;;13.93;;
85738;SDS011;76182;41.498;22.100;2024-03-02T02:35:54;22.83;;;14.18;;
85738;SDS011;76182;41.498;22.100;2024-03-02T02:38:19;25.55;;;15.45;;
85738;SDS011;76182;41.498;22.100;2024-03-02T02:40:45;22.20;;;13.15;;
85738;SDS011;76182;41.498;22.100;2024-03-02T02:43:10;23.05;;;13.48;;
85738;SDS011;76182;41.498;22.100;2024-03-02T02:45:36;25.23;;;14.73;;
85738;SDS011;76182;41.498;22.100;2024-03-02T02:48:01;24.42;;;15.02;;
85738;SDS011;76182;41.498;22.100;2024-03-02T02:50:27;24.65;;;14.85;;
85738;SDS011;76182;41.498;22.100;2024-03-02T02:52:53;30.75;;;17.17;;
85738;SDS011;76182;41.498;22.100;2024-03-02T02:55:18;25.38;;;15.10;;
85738;SDS011;76182;41.498;22.100;2024-03-02T02:57:44;25.90;;;15.32;;
85738;SDS011;76182;41.498;22.100;2024-03-02T03:00:11;24.45;;;15.00;;
85738;SDS011;76182;41.498;22.100;2024-03-02T03:02:44;24.40;;;14.48;;
85738;SDS011;76182;41.498;22.100;2024-03-02T03:05:14;23.00;;;15.00;;
85738;SDS011;76182;41.498;22.100;2024-03-02T03:07:40;25.42;;;15.40;;
85738;SDS011;76182;41.498;22.100;2024-03-02T03:10:06;25.88;;;16.48;;
85738;SDS011;76182;41.498;22.100;2024-03-02T03:12:32;27.23;;;15.70;;
85738;SDS011;76182;41.498;22.100;2024-03-02T03:15:01;24.98;;;14.82;;
85738;SDS011;76182;41.498;22.100;2024-03-02T03:17:29;27.08;;;16.13;;
85738;SDS011;76182;41.498;22.100;2024-03-02T03:19:55;26.38;;;15.32;;
85738;SDS011;76182;41.498;22.100;2024-03-02T03:22:20;20.38;;;13.10;;
85738;SDS011;76182;41.498;22.100;2024-03-02T03:24:45;20.95;;;13.32;;
85738;SDS011;76182;41.498;22.100;2024-03-02T03:27:11;23.23;;;13.68;;
85738;SDS011;76182;41.498;22.100;2024-03-02T03:29:36;20.60;;;13.25;;
85738;SDS011;76182;41.498;22.100;2024-03-02T03:32:02;20.23;;;12.63;;
85738;SDS011;76182;41.498;22.100;2024-03-02T03:34:29;20.40;;;13.02;;
85738;SDS011;76182;41.498;22.100;2024-03-02T03:36:57;22.77;;;14.65;;
85738;SDS011;76182;41.498;22.100;2024-03-02T03:39:23;22.50;;;13.93;;
85738;SDS011;76182;41.498;22.100;2024-03-02T03:41:48;22.08;;;12.95;;
85738;SDS011;76182;41.498;22.100;2024-03-02T03:44:13;20.35;;;12.90;;
85738;SDS011;76182;41.498;22.100;2024-03-02T03:46:39;20.73;;;12.88;;
85738;SDS011;76182;41.498;22.100;2024-03-02T03:49:04;24.95;;;13.38;;
85738;SDS011;76182;41.498;22.100;2024-03-02T03:51:30;23.83;;;13.55;;
85738;SDS011;76182;41.498;22.100;2024-03-02T03:53:55;24.38;;;13.27;;
85738;SDS011;76182;41.498;22.100;2024-03-02T03:56:21;25.83;;;13.88;;
85738;SDS011;76182;41.498;22.100;2024-03-02T03:58:46;26.75;;;14.73;;
85738;SDS011;76182;41.498;22.100;2024-03-02T04:01:12;25.23;;;14.65;;
85738;SDS011;76182;41.498;22.100;2024-03-02T04:03:38;24.00;;;14.23;;
85738;SDS011;76182;41.498;22.100;2024-03-02T04:06:03;23.92;;;14.68;;
85738;SDS011;76182;41.498;22.100;2024-03-02T04:08:29;22.40;;;14.38;;
85738;SDS011;76182;41.498;22.100;2024-03-02T04:10:54;23.02;;;13.35;;
85738;SDS011;76182;41.498;22.100;2024-03-02T04:13:20;21.05;;;13.45;;
85738;SDS011;76182;41.498;22.100;2024-03-02T04:15:45;23.02;;;12.48;;
85738;SDS011;76182;41.498;22.100;2024-03-02T04:18:10;22.20;;;13.45;;
85738;SDS011;76182;41.498;22.100;2024-03-02T04:20:36;20.27;;;12.48;;
85738;SDS011;76182;41.498;22.100;2024-03-02T04:23:02;22.30;;;13.10;;
85738;SDS011;76182;41.498;22.100;2024-03-02T04:25:27;23.08;;;13.20;;
85738;SDS011;76182;41.498;22.100;2024-03-02T04:27:53;24.58;;;14.23;;
85738;SDS011;76182;41.498;22.100;2024-03-02T04:30:18;25.50;;;14.30;;
85738;SDS011;76182;41.498;22.100;2024-03-02T04:32:43;26.05;;;13.95;;
85738;SDS011;76182;41.498;22.100;2024-03-02T04:35:11;29.48;;;14.32;;
85738;SDS011;76182;41.498;22.100;2024-03-02T04:37:37;25.58;;;14.40;;
85738;SDS011;76182;41.498;22.100;2024-03-02T04:40:03;27.77;;;14.70;;
85738;SDS011;76182;41.498;22.100;2024-03-02T04:42:29;23.42;;;12.88;;
85738;SDS011;76182;41.498;22.100;2024-03-02T04:44:54;20.88;;;13.80;;
85738;SDS011;76182;41.498;22.100;2024-03-02T04:47:20;23.85;;;14.73;;
85738;SDS011;76182;41.498;22.100;2024-03-02T04:49:45;24.73;;;13.40;;
85738;SDS011;76182;41.498;22.100;2024-03-02T04:52:11;23.98;;;14.10;;
85738;SDS011;76182;41.498;22.100;2024-03-02T04:54:36;23.67;;;14.20;;
85738;SDS011;76182;41.498;22.100;2024-03-02T04:57:21;23.83;;;14.18;;
85738;SDS011;76182;41.498;22.100;2024-03-02T04:59:47;23.15;;;14.50;;
85738;SDS011;76182;41.498;22.100;2024-03-02T05:02:12;23.17;;;13.18;;
85738;SDS011;76182;41.498;22.100;2024-03-02T05:04:39;22.85;;;13.45;;
85738;SDS011;76182;41.498;22.100;2024-03-02T05:07:05;22.42;;;13.23;;
85738;SDS011;76182;41.498;22.100;2024-03-02T05:09:30;24.45;;;14.32;;
85738;SDS011;76182;41.498;22.100;2024-03-02T05:11:56;24.05;;;14.00;;
85738;SDS011;76182;41.498;22.100;2024-03-02T05:14:36;27.70;;;15.48;;
85738;SDS011;76182;41.498;22.100;2024-03-02T05:17:03;21.90;;;14.00;;
85738;SDS011;76182;41.498;22.100;2024-03-02T05:19:29;25.33;;;13.75;;
85738;SDS011;76182;41.498;22.100;2024-03-02T05:21:54;27.23;;;14.40;;
85738;SDS011;76182;41.498;22.100;2024-03-02T05:24:19;24.75;;;14.75;;
85738;SDS011;76182;41.498;22.100;2024-03-02T05:26:45;26.08;;;14.95;;
85738;SDS011;76182;41.498;22.100;2024-03-02T05:29:11;23.80;;;14.23;;
85738;SDS011;76182;41.498;22.100;2024-03-02T05:31:37;24.45;;;14.75;;
85738;SDS011;76182;41.498;22.100;2024-03-02T05:34:02;27.45;;;16.48;;
85738;SDS011;76182;41.498;22.100;2024-03-02T05:36:28;29.50;;;16.65;;
85738;SDS011;76182;41.498;22.100;2024-03-02T05:38:54;29.67;;;16.17;;
85738;SDS011;76182;41.498;22.100;2024-03-02T05:41:19;30.42;;;16.13;;
85738;SDS011;76182;41.498;22.100;2024-03-02T05:43:44;26.90;;;15.70;;
85738;SDS011;76182;41.498;22.100;2024-03-02T05:46:10;25.27;;;15.55;;
85738;SDS011;76182;41.498;22.100;2024-03-02T05:48:35;29.42;;;16.45;;
85738;SDS011;76182;41.498;22.100;2024-03-02T05:51:01;24.13;;;15.98;;
85738;SDS011;76182;41.498;22.100;2024-03-02T05:53:26;25.10;;;15.65;;
85738;SDS011;76182;41.498;22.100;2024-03-02T05:55:52;24.27;;;14.73;;
85738;SDS011;76182;41.498;22.100;2024-03-02T05:58:20;27.20;;;15.00;;
85738;SDS011;76182;41.498;22.100;2024-03-02T06:01:03;26.15;;;14.50;;
85738;SDS011;76182;41.498;22.100;2024-03-02T06:03:29;26.67;;;13.43;;
85738;SDS011;76182;41.498;22.100;2024-03-02T06:05:55;24.52;;;14.35;;
85738;SDS011;76182;41.498;22.100;2024-03-02T06:08:20;22.67;;;13.45;;
85738;SDS011;76182;41.498;22.100;2024-03-02T06:10:46;23.08;;;13.48;;
85738;SDS011;76182;41.498;22.100;2024-03-02T06:13:11;22.67;;;14.20;;
85738;SDS011;76182;41.498;22.100;2024-03-02T06:15:37;23.88;;;13.77;;
85738;SDS011;76182;41.498;22.100;2024-03-02T06:18:02;27.02;;;14.48;;
85738;SDS011;76182;41.498;22.100;2024-03-02T06:20:28;27.25;;;14.73;;
85738;SDS011;76182;41.498;22.100;2024-03-02T06:22:56;28.10;;;15.23;;
85738;SDS011;76182;41.498;22.100;2024-03-02T06:25:21;24.90;;;13.98;;
85738;SDS011;76182;41.498;22.100;2024-03-02T06:27:47;23.98;;;13.82;;
85738;SDS011;76182;41.498;22.100;2024-03-02T06:30:12;22.67;;;13.90;;
85738;SDS011;76182;41.498;22.100;2024-03-02T06:32:38;20.80;;;13.05;;
85738;SDS011;76182;41.498;22.100;2024-03-02T06:35:04;24.90;;;12.60;;
85738;SDS011;76182;41.498;22.100;2024-03-02T06:37:30;19.92;;;12.45;;
85738;SDS011;76182;41.498;22.100;2024-03-02T06:39:56;22.67;;;13.27;;
85738;SDS011;76182;41.498;22.100;2024-03-02T06:42:22;16.83;;;10.82;;
85738;SDS011;76182;41.498;22.100;2024-03-02T06:44:47;19.85;;;12.52;;
85738;SDS011;76182;41.498;22.100;2024-03-02T06:47:13;18.00;;;11.25;;
85738;SDS011;76182;41.498;22.100;2024-03-02T06:49:38;22.92;;;11.43;;
85738;SDS011;76182;41.498;22.100;2024-03-02T06:52:03;20.88;;;12.68;;
85738;SDS011;76182;41.498;22.100;2024-03-02T06:54:29;24.05;;;13.88;;
85738;SDS011;76182;41.498;22.100;2024-03-02T06:56:54;21.80;;;12.93;;
85738;SDS011;76182;41.498;22.100;2024-03-02T06:59:20;20.60;;;12.75;;
85738;SDS011;76182;41.498;22.100;2024-03-02T07:01:45;23.25;;;13.07;;
85738;SDS011;76182;41.498;22.100;2024-03-02T07:04:11;20.85;;;12.10;;
85738;SDS011;76182;41.498;22.100;2024-03-02T07:06:36;19.63;;;11.27;;
85738;SDS011;76182;41.498;22.100;2024-03-02T07:09:02;18.05;;;11.20;;
85738;SDS011;76182;41.498;22.100;2024-03-02T07:11:27;14.77;;;9.27;;
85738;SDS011;76182;41.498;22.100;2024-03-02T07:13:53;13.95;;;9.30;;
85738;SDS011;76182;41.498;22.100;2024-03-02T07:16:18;16.05;;;9.38;;
85738;SDS011;76182;41.498;22.100;2024-03-02T07:18:49;16.92;;;9.25;;
85738;SDS011;76182;41.498;22.100;2024-03-02T07:21:17;17.23;;;9.65;;
85738;SDS011;76182;41.498;22.100;2024-03-02T07:23:43;18.48;;;9.05;;
85738;SDS011;76182;41.498;22.100;2024-03-02T07:26:08;13.25;;;8.85;;
85738;SDS011;76182;41.498;22.100;2024-03-02T07:28:35;13.70;;;7.75;;
85738;SDS011;76182;41.498;22.100;2024-03-02T07:31:01;12.63;;;8.65;;
85738;SDS011;76182;41.498;22.100;2024-03-02T07:33:28;13.70;;;8.05;;
85738;SDS011;76182;41.498;22.100;2024-03-02T07:35:54;10.10;;;7.00;;
85738;SDS011;76182;41.498;22.100;2024-03-02T07:38:20;14.52;;;8.65;;
85738;SDS011;76182;41.498;22.100;2024-03-02T07:40:47;12.25;;;8.40;;
85738;SDS011;76182;41.498;22.100;2024-03-02T07:43:16;12.73;;;8.50;;
85738;SDS011;76182;41.498;22.100;2024-03-02T07:45:42;11.82;;;8.40;;
85738;SDS011;76182;41.498;22.100;2024-03-02T07:48:07;12.75;;;8.35;;
85738;SDS011;76182;41.498;22.100;2024-03-02T07:50:33;13.77;;;8.18;;
85738;SDS011;76182;41.498;22.100;2024-03-02T07:53:00;11.32;;;7.88;;
85738;SDS011;76182;41.498;22.100;2024-03-02T07:55:26;10.68;;;7.20;;
85738;SDS011;76182;41.498;22.100;2024-03-02T07:57:51;12.10;;;8.30;;
85738;SDS011;76182;41.498;22.100;2024-03-02T08:00:17;10.50;;;8.63;;
85738;SDS011;76182;41.498;22.100;2024-03-02T08:02:42;10.48;;;6.80;;
85738;SDS011;76182;41.498;22.100;2024-03-02T08:05:08;12.98;;;7.55;;
85738;SDS011;76182;41.498;22.100;2024-03-02T08:07:34;8.27;;;6.05;;
85738;SDS011;76182;41.498;22.100;2024-03-02T08:10:00;9.38;;;6.40;;
85738;SDS011;76182;41.498;22.100;2024-03-02T08:12:26;8.55;;;6.32;;
85738;SDS011;76182;41.498;22.100;2024-03-02T08:14:51;9.98;;;7.13;;
85738;SDS011;76182;41.498;22.100;2024-03-02T08:17:17;9.18;;;6.20;;
85738;SDS011;76182;41.498;22.100;2024-03-02T08:19:42;8.95;;;5.80;;
85738;SDS011;76182;41.498;22.100;2024-03-02T08:22:09;9.98;;;5.68;;
85738;SDS011;76182;41.498;22.100;2024-03-02T08:24:35;6.35;;;4.80;;
85738;SDS011;76182;41.498;22.100;2024-03-02T08:27:01;7.10;;;4.70;;
85738;SDS011;76182;41.498;22.100;2024-03-02T08:29:27;6.90;;;5.00;;
85738;SDS011;76182;41.498;22.100;2024-03-02T08:31:53;6.82;;;4.25;;
85738;SDS011;76182;41.498;22.100;2024-03-02T08:34:19;5.45;;;4.03;;
85738;SDS011;76182;41.498;22.100;2024-03-02T08:36:45;5.30;;;3.85;;
85738;SDS011;76182;41.498;22.100;2024-03-02T08:39:11;4.85;;;3.40;;
85738;SDS011;76182;41.498;22.100;2024-03-02T08:41:41;4.93;;;3.78;;
85738;SDS011;76182;41.498;22.100;2024-03-02T08:44:08;8.98;;;4.47;;
85738;SDS011;76182;41.498;22.100;2024-03-02T08:46:34;6.80;;;5.00;;
85738;SDS011;76182;41.498;22.100;2024-03-02T08:48:59;9.00;;;5.55;;
85738;SDS011;76182;41.498;22.100;2024-03-02T08:51:25;5.80;;;3.92;;
85738;SDS011;76182;41.498;22.100;2024-03-02T08:53:50;5.80;;;4.13;;
85738;SDS011;76182;41.498;22.100;2024-03-02T08:56:16;7.43;;;4.53;;
85738;SDS011;76182;41.498;22.100;2024-03-02T08:58:41;5.70;;;4.20;;
85738;SDS011;76182;41.498;22.100;2024-03-02T09:01:08;5.60;;;3.78;;
85738;SDS011;76182;41.498;22.100;2024-03-02T09:03:34;4.43;;;3.08;;
85738;SDS011;76182;41.498;22.100;2024-03-02T09:06:00;14.27;;;4.70;;
85738;SDS011;76182;41.498;22.100;2024-03-02T09:08:26;5.38;;;3.15;;
85738;SDS011;76182;41.498;22.100;2024-03-02T09:10:51;4.78;;;3.03;;
85738;SDS011;76182;41.498;22.100;2024-03-02T09:13:17;5.20;;;3.47;;
85738;SDS011;76182;41.498;22.100;2024-03-02T09:15:43;12.38;;;5.13;;
85738;SDS011;76182;41.498;22.100;2024-03-02T09:18:09;5.13;;;3.42;;
85738;SDS011;76182;41.498;22.100;2024-03-02T09:20:35;5.13;;;3.00;;
85738;SDS011;76182;41.498;22.100;2024-03-02T09:23:00;4.95;;;3.17;;
85738;SDS011;76182;41.498;22.100;2024-03-02T09:25:26;5.63;;;3.05;;
85738;SDS011;76182;41.498;22.100;2024-03-02T09:27:51;6.97;;;2.95;;
85738;SDS011;76182;41.498;22.100;2024-03-02T09:30:17;12.07;;;2.97;;
85738;SDS011;76182;41.498;22.100;2024-03-02T09:32:43;11.50;;;3.35;;
85738;SDS011;76182;41.498;22.100;2024-03-02T09:35:09;5.00;;;2.92;;
85738;SDS011;76182;41.498;22.100;2024-03-02T09:37:35;8.50;;;2.97;;
85738;SDS011;76182;41.498;22.100;2024-03-02T09:40:01;6.47;;;2.80;;
85738;SDS011;76182;41.498;22.100;2024-03-02T09:42:27;4.55;;;2.80;;
85738;SDS011;76182;41.498;22.100;2024-03-02T09:44:53;3.70;;;2.72;;
85738;SDS011;76182;41.498;22.100;2024-03-02T09:47:18;8.45;;;3.45;;
85738;SDS011;76182;41.498;22.100;2024-03-02T09:49:44;7.32;;;3.08;;
85738;SDS011;76182;41.498;22.100;2024-03-02T09:52:10;11.77;;;3.10;;
85738;SDS011;76182;41.498;22.100;2024-03-02T09:54:35;5.57;;;2.60;;
85738;SDS011;76182;41.498;22.100;2024-03-02T09:57:04;4.70;;;2.95;;
85738;SDS011;76182;41.498;22.100;2024-03-02T09:59:29;6.82;;;3.10;;
85738;SDS011;76182;41.498;22.100;2024-03-02T10:01:58;4.95;;;2.67;;
85738;SDS011;76182;41.498;22.100;2024-03-02T10:04:28;5.47;;;3.63;;
85738;SDS011;76182;41.498;22.100;2024-03-02T10:07:12;8.10;;;5.93;;
85738;SDS011;76182;41.498;22.100;2024-03-02T10:09:43;8.57;;;2.97;;
85738;SDS011;76182;41.498;22.100;2024-03-02T10:12:12;13.45;;;6.40;;
85738;SDS011;76182;41.498;22.100;2024-03-02T10:14:39;4.35;;;2.90;;
85738;SDS011;76182;41.498;22.100;2024-03-02T10:17:06;5.43;;;3.10;;
85738;SDS011;76182;41.498;22.100;2024-03-02T10:19:36;6.93;;;2.70;;
85738;SDS011;76182;41.498;22.100;2024-03-02T10:22:05;14.23;;;4.97;;
85738;SDS011;76182;41.498;22.100;2024-03-02T10:24:35;5.68;;;4.38;;
85738;SDS011;76182;41.498;22.100;2024-03-02T10:27:09;4.43;;;2.45;;
85738;SDS011;76182;41.498;22.100;2024-03-02T10:29:39;6.82;;;3.60;;
85738;SDS011;76182;41.498;22.100;2024-03-02T10:32:09;5.75;;;2.60;;
85738;SDS011;76182;41.498;22.100;2024-03-02T10:34:36;4.40;;;2.17;;
85738;SDS011;76182;41.498;22.100;2024-03-02T10:37:02;4.07;;;1.98;;
85738;SDS011;76182;41.498;22.100;2024-03-02T10:39:28;5.32;;;2.17;;
85738;SDS011;76182;41.498;22.100;2024-03-02T10:42:02;9.65;;;6.57;;
85738;SDS011;76182;41.498;22.100;2024-03-02T10:44:28;7.32;;;2.72;;
85738;SDS011;76182;41.498;22.100;2024-03-02T10:46:56;3.63;;;2.22;;
85738;SDS011;76182;41.498;22.100;2024-03-02T10:49:22;6.15;;;2.15;;
85738;SDS011;76182;41.498;22.100;2024-03-02T10:51:49;4.47;;;2.10;;
85738;SDS011;76182;41.498;22.100;2024-03-02T10:54:15;5.35;;;2.30;;
85738;SDS011;76182;41.498;22.100;2024-03-02T10:56:42;5.38;;;2.20;;
85738;SDS011;76182;41.498;22.100;2024-03-02T10:59:17;5.97;;;2.42;;
85738;SDS011;76182;41.498;22.100;2024-03-02T11:01:47;4.28;;;1.95;;
85738;SDS011;76182;41.498;22.100;2024-03-02T11:04:15;7.82;;;2.40;;
85738;SDS011;76182;41.498;22.100;2024-03-02T11:06:48;5.55;;;2.15;;
85738;SDS011;76182;41.498;22.100;2024-03-02T11:09:14;5.18;;;2.50;;
85738;SDS011;76182;41.498;22.100;2024-03-02T11:11:43;5.22;;;2.28;;
85738;SDS011;76182;41.498;22.100;2024-03-02T11:14:11;8.10;;;2.97;;
85738;SDS011;76182;41.498;22.100;2024-03-02T11:16:39;3.72;;;2.25;;
85738;SDS011;76182;41.498;22.100;2024-03-02T11:19:08;5.80;;;2.10;;
85738;SDS011;76182;41.498;22.100;2024-03-02T11:21:36;8.10;;;2.72;;
85738;SDS011;76182;41.498;22.100;2024-03-02T11:26:52;7.35;;;2.20;;
85738;SDS011;76182;41.498;22.100;2024-03-02T11:32:01;3.03;;;1.98;;
85738;SDS011;76182;41.498;22.100;2024-03-02T11:34:29;5.38;;;2.15;;
85738;SDS011;76182;41.498;22.100;2024-03-02T11:36:58;6.13;;;2.25;;
85738;SDS011;76182;41.498;22.100;2024-03-02T11:39:26;8.13;;;2.10;;
85738;SDS011;76182;41.498;22.100;2024-03-02T11:41:52;10.10;;;3.00;;
85738;SDS011;76182;41.498;22.100;2024-03-02T11:44:17;4.63;;;2.15;;
85738;SDS011;76182;41.498;22.100;2024-03-02T11:47:02;5.82;;;2.20;;
85738;SDS011;76182;41.498;22.100;2024-03-02T11:49:39;5.90;;;2.28;;
85738;SDS011;76182;41.498;22.100;2024-03-02T11:52:11;4.55;;;1.95;;
85738;SDS011;76182;41.498;22.100;2024-03-02T11:54:38;6.63;;;2.10;;
85738;SDS011;76182;41.498;22.100;2024-03-02T11:57:05;9.02;;;2.25;;
85738;SDS011;76182;41.498;22.100;2024-03-02T11:59:34;7.10;;;2.60;;
85738;SDS011;76182;41.498;22.100;2024-03-02T12:02:00;21.48;;;2.95;;
85738;SDS011;76182;41.498;22.100;2024-03-02T12:04:26;13.40;;;2.80;;
85738;SDS011;76182;41.498;22.100;2024-03-02T12:06:55;24.88;;;4.57;;
85738;SDS011;76182;41.498;22.100;2024-03-02T12:09:25;11.32;;;2.78;;
85738;SDS011;76182;41.498;22.100;2024-03-02T12:12:04;4.93;;;2.03;;
85738;SDS011;76182;41.498;22.100;2024-03-02T12:14:31;5.47;;;2.70;;
85738;SDS011;76182;41.498;22.100;2024-03-02T12:16:58;5.65;;;2.13;;
85738;SDS011;76182;41.498;22.100;2024-03-02T12:19:24;4.95;;;2.38;;
85738;SDS011;76182;41.498;22.100;2024-03-02T12:21:51;7.65;;;2.42;;
85738;SDS011;76182;41.498;22.100;2024-03-02T12:24:17;6.10;;;2.25;;
85738;SDS011;76182;41.498;22.100;2024-03-02T12:26:42;6.78;;;2.40;;
85738;SDS011;76182;41.498;22.100;2024-03-02T12:29:08;6.78;;;2.47;;
85738;SDS011;76182;41.498;22.100;2024-03-02T12:31:34;13.48;;;3.28;;
85738;SDS011;76182;41.498;22.100;2024-03-02T12:34:00;10.38;;;3.60;;
85738;SDS011;76182;41.498;22.100;2024-03-02T12:36:27;6.80;;;2.58;;
85738;SDS011;76182;41.498;22.100;2024-03-02T12:38:53;10.48;;;2.60;;
85738;SDS011;76182;41.498;22.100;2024-03-02T12:41:19;7.65;;;2.95;;
85738;SDS011;76182;41.498;22.100;2024-03-02T12:43:45;9.60;;;2.33;;
85738;SDS011;76182;41.498;22.100;2024-03-02T12:46:11;14.25;;;3.25;;
85738;SDS011;76182;41.498;22.100;2024-03-02T12:48:37;6.68;;;2.60;;
85738;SDS011;76182;41.498;22.100;2024-03-02T12:51:05;14.38;;;3.00;;
85738;SDS011;76182;41.498;22.100;2024-03-02T12:53:31;9.57;;;2.70;;
85738;SDS011;76182;41.498;22.100;2024-03-02T12:55:57;5.53;;;2.42;;
85738;SDS011;76182;41.498;22.100;2024-03-02T12:58:23;9.55;;;3.13;;
85738;SDS011;76182;41.498;22.100;2024-03-02T13:00:49;9.77;;;2.65;;
85738;SDS011;76182;41.498;22.100;2024-03-02T13:03:14;6.07;;;2.30;;
85738;SDS011;76182;41.498;22.100;2024-03-02T13:05:48;8.15;;;2.40;;
85738;SDS011;76182;41.498;22.100;2024-03-02T13:08:14;7.65;;;2.42;;
85738;SDS011;76182;41.498;22.100;2024-03-02T13:10:40;6.28;;;2.40;;
85738;SDS011;76182;41.498;22.100;2024-03-02T13:13:06;7.82;;;3.47;;
85738;SDS011;76182;41.498;22.100;2024-03-02T13:15:32;10.80;;;3.83;;
85738;SDS011;76182;41.498;22.100;2024-03-02T13:17:58;11.95;;;2.92;;
85738;SDS011;76182;41.498;22.100;2024-03-02T13:20:30;5.72;;;2.83;;
85738;SDS011;76182;41.498;22.100;2024-03-02T13:22:59;15.65;;;3.47;;
85738;SDS011;76182;41.498;22.100;2024-03-02T13:25:25;4.05;;;2.13;;
85738;SDS011;76182;41.498;22.100;2024-03-02T13:27:50;6.82;;;2.55;;
85738;SDS011;76182;41.498;22.100;2024-03-02T13:30:16;17.55;;;3.10;;
85738;SDS011;76182;41.498;22.100;2024-03-02T13:32:41;4.22;;;2.10;;
85738;SDS011;76182;41.498;22.100;2024-03-02T13:35:07;8.38;;;2.45;;
85738;SDS011;76182;41.498;22.100;2024-03-02T13:37:32;5.20;;;1.95;;
85738;SDS011;76182;41.498;22.100;2024-03-02T13:39:58;6.88;;;2.80;;
85738;SDS011;76182;41.498;22.100;2024-03-02T13:42:23;6.22;;;2.20;;
85738;SDS011;76182;41.498;22.100;2024-03-02T13:44:49;6.80;;;2.35;;
85738;SDS011;76182;41.498;22.100;2024-03-02T13:47:16;5.53;;;2.30;;
85738;SDS011;76182;41.498;22.100;2024-03-02T13:49:41;32.08;;;5.80;;
85738;SDS011;76182;41.498;22.100;2024-03-02T13:52:11;8.88;;;2.38;;
85738;SDS011;76182;41.498;22.100;2024-03-02T13:54:40;13.77;;;2.42;;
85738;SDS011;76182;41.498;22.100;2024-03-02T13:57:07;8.40;;;2.60;;
85738;SDS011;76182;41.498;22.100;2024-03-02T13:59:33;5.97;;;2.20;;
85738;SDS011;76182;41.498;22.100;2024-03-02T14:02:00;9.77;;;3.15;;
85738;SDS011;76182;41.498;22.100;2024-03-02T14:04:26;10.95;;;2.72;;
85738;SDS011;76182;41.498;22.100;2024-03-02T14:06:52;6.03;;;2.03;;
85738;SDS011;76182;41.498;22.100;2024-03-02T14:09:18;18.42;;;2.75;;
85738;SDS011;76182;41.498;22.100;2024-03-02T14:11:45;14.85;;;2.50;;
85738;SDS011;76182;41.498;22.100;2024-03-02T14:14:11;3.35;;;1.77;;
85738;SDS011;76182;41.498;22.100;2024-03-02T14:16:36;7.35;;;2.13;;
85738;SDS011;76182;41.498;22.100;2024-03-02T14:19:03;8.75;;;2.70;;
85738;SDS011;76182;41.498;22.100;2024-03-02T14:21:32;11.88;;;2.40;;
85738;SDS011;76182;41.498;22.100;2024-03-02T14:23:57;10.43;;;2.63;;
85738;SDS011;76182;41.498;22.100;2024-03-02T14:26:23;7.32;;;1.85;;
85738;SDS011;76182;41.498;22.100;2024-03-02T14:28:48;10.07;;;2.60;;
85738;SDS011;76182;41.498;22.100;2024-03-02T14:31:14;8.15;;;2.20;;
85738;SDS011;76182;41.498;22.100;2024-03-02T14:33:39;9.45;;;2.60;;